Time;durP1;ratioP1;P1;durP2;ratioP2;P2;SDS_P1;SDS_P2;PMS_P1;PMS_P2;Temp;Humidity;BMP_temperature;BMP_pressure;BME280_temperature;BME280_humidity;BME280_pressure;Samples;Min_cycle;Max_cycle;Signal;HPM_P1;HPM_P2
2022/04/24 00:01:04;;;;;;;;;14.75;12.75;;;;;-143.93;100.00;62969.28;5004378;28;8931;-71
2022/04/24 00:03:29;;;;;;;;;18.75;14.25;;;;;-143.93;100.00;62969.28;4995997;28;8831;-72
2022/04/24 00:05:54;;;;;;;;;17.25;14.75;;;;;-143.93;100.00;62969.28;4998369;28;8895;-72
2022/04/24 00:08:20;;;;;;;;;16.50;15.00;;;;;-143.93;100.00;62969.28;5005536;28;9564;-72
2022/04/24 00:10:45;;;;;;;;;19.50;18.00;;;;;-143.93;100.00;62969.28;5007254;28;8811;-72
2022/04/24 00:13:11;;;;;;;;;18.25;14.25;;;;;-143.93;100.00;62969.28;5003804;28;8923;-72
2022/04/24 00:15:39;;;;;;;;;15.25;13.00;;;;;-143.93;100.00;62969.28;4999137;28;8807;-72
2022/04/24 00:18:04;;;;;;;;;21.00;17.25;;;;;-143.93;100.00;62969.28;5003336;28;8883;-72
2022/04/24 00:20:30;;;;;;;;;21.00;17.25;;;;;-143.93;100.00;62969.28;5004690;28;8821;-72
2022/04/24 00:22:55;;;;;;;;;17.50;16.00;;;;;-143.93;100.00;62969.28;5006910;28;8944;-72
2022/04/24 00:25:20;;;;;;;;;20.75;17.75;;;;;-143.93;100.00;62969.28;5004316;28;9603;-72
2022/04/24 00:27:46;;;;;;;;;17.75;14.75;;;;;-143.93;100.00;62969.28;4998965;28;9603;-72
2022/04/24 00:30:11;;;;;;;;;19.75;18.25;;;;;-143.93;100.00;62969.28;4997087;28;8845;-71
2022/04/24 00:32:37;;;;;;;;;17.00;17.00;;;;;-143.93;100.00;62969.28;5004942;28;8810;-71
2022/04/24 00:35:02;;;;;;;;;16.50;16.25;;;;;-143.93;100.00;62969.28;5008260;28;8844;-72
2022/04/24 00:37:29;;;;;;;;;19.25;16.00;;;;;-143.93;100.00;62969.28;4991982;28;8816;-72
2022/04/24 00:39:55;;;;;;;;;18.75;14.75;;;;;-143.93;100.00;62969.28;4998059;28;8817;-72
2022/04/24 00:42:20;;;;;;;;;18.00;18.00;;;;;-143.93;100.00;62969.28;5008007;28;9576;-72
2022/04/24 00:44:45;;;;;;;;;20.25;18.25;;;;;-143.93;100.00;62969.28;5001460;28;8836;-72
2022/04/24 00:47:15;;;;;;;;;19.00;17.75;;;;;-143.93;100.00;62969.28;5001842;28;14727;-72
2022/04/24 00:49:42;;;;;;;;;17.00;14.50;;;;;-143.93;100.00;62969.28;4991957;28;8804;-72
2022/04/24 00:52:08;;;;;;;;;16.50;16.00;;;;;-143.93;100.00;62969.28;5003435;28;8885;-72
2022/04/24 00:54:33;;;;;;;;;15.00;14.75;;;;;-143.93;100.00;62969.28;5001094;28;8844;-72
2022/04/24 00:56:59;;;;;;;;;18.75;15.50;;;;;-143.93;100.00;62969.28;4996406;28;8898;-72
2022/04/24 00:59:24;;;;;;;;;13.75;13.50;;;;;-143.93;100.00;62969.28;5014391;28;8837;-71
2022/04/24 01:01:50;;;;;;;;;20.00;17.25;;;;;-143.93;100.00;62969.28;4989611;28;9603;-72
2022/04/24 01:04:16;;;;;;;;;21.25;20.00;;;;;-143.93;100.00;62969.28;4999699;28;9544;-71
2022/04/24 01:06:43;;;;;;;;;28.00;22.50;;;;;-143.93;100.00;62969.28;5000124;28;8805;-72
2022/04/24 01:09:18;;;;;;;;;23.50;18.25;;;;;-143.93;100.00;62969.28;4993718;28;8819;-72
2022/04/24 01:11:48;;;;;;;;;19.50;19.25;;;;;-143.93;100.00;62969.28;5000998;28;10036;-72
2022/04/24 01:14:16;;;;;;;;;20.25;18.00;;;;;-143.93;100.00;62969.28;4996181;28;8819;-71
2022/04/24 01:16:42;;;;;;;;;22.25;19.00;;;;;-143.93;100.00;62969.28;5001267;28;8791;-71
2022/04/24 01:19:08;;;;;;;;;19.75;17.75;;;;;-143.93;100.00;62969.28;5002181;28;8810;-71
2022/04/24 01:21:34;;;;;;;;;19.75;18.50;;;;;-143.93;100.00;62969.28;5018693;28;8861;-70
2022/04/24 01:24:00;;;;;;;;;20.25;18.25;;;;;-143.93;100.00;62969.28;5035955;28;8962;-71
2022/04/24 01:26:25;;;;;;;;;20.00;19.50;;;;;-143.93;100.00;62969.28;4994801;28;8939;-71
2022/04/24 01:28:51;;;;;;;;;23.00;20.75;;;;;-143.93;100.00;62969.28;5002596;28;8943;-70
2022/04/24 01:31:16;;;;;;;;;19.25;16.25;;;;;-143.93;100.00;62969.28;4995303;28;8824;-71
2022/04/24 01:33:42;;;;;;;;;22.25;17.75;;;;;-143.93;100.00;62969.28;5013310;28;8843;-71
2022/04/24 01:36:08;;;;;;;;;18.50;16.75;;;;;-143.93;100.00;62969.28;5005388;28;8963;-70
2022/04/24 01:38:33;;;;;;;;;23.25;18.00;;;;;-143.93;100.00;62969.28;4991927;28;9759;-70
2022/04/24 01:40:59;;;;;;;;;19.50;17.75;;;;;-143.93;100.00;62969.28;5006078;28;8851;-72
2022/04/24 01:43:24;;;;;;;;;22.75;19.25;;;;;-143.93;100.00;62969.28;4993432;28;8870;-72
2022/04/24 01:45:49;;;;;;;;;18.50;17.00;;;;;-143.93;100.00;62969.28;5001267;28;8827;-72
2022/04/24 01:48:15;;;;;;;;;16.25;15.50;;;;;-143.93;100.00;62969.28;4998789;28;16801;-71
2022/04/24 01:50:40;;;;;;;;;16.50;16.50;;;;;-143.93;100.00;62969.28;4996348;28;11717;-71
2022/04/24 01:53:05;;;;;;;;;22.75;18.00;;;;;-143.93;100.00;62969.28;5003698;28;15353;-72
2022/04/24 01:55:30;;;;;;;;;26.00;23.00;;;;;-143.93;100.00;62969.28;5002797;28;9307;-71
2022/04/24 01:57:56;;;;;;;;;19.75;19.50;;;;;-143.93;100.00;62969.28;5001522;28;8809;-71
2022/04/24 02:00:21;;;;;;;;;22.75;18.25;;;;;-143.93;100.00;62969.28;5000502;28;8921;-71
2022/04/24 02:02:47;;;;;;;;;24.50;18.00;;;;;-143.93;100.00;62969.28;4997697;28;8854;-72
2022/04/24 02:05:13;;;;;;;;;26.00;22.25;;;;;-143.93;100.00;62969.28;5005295;27;8831;-72
2022/04/24 02:07:39;;;;;;;;;22.75;21.25;;;;;-143.93;100.00;62969.28;5019604;28;8817;-72
2022/04/24 02:10:04;;;;;;;;;21.75;19.25;;;;;-143.93;100.00;62969.28;4997630;28;8831;-72
2022/04/24 02:12:30;;;;;;;;;25.25;18.75;;;;;-143.93;100.00;62969.28;5001107;28;8816;-71
2022/04/24 02:14:56;;;;;;;;;20.75;20.00;;;;;-143.93;100.00;62969.28;5000980;27;17000;-71
2022/04/24 02:17:21;;;;;;;;;25.50;23.25;;;;;-143.93;100.00;62969.28;4995239;28;8834;-72
2022/04/24 02:19:46;;;;;;;;;22.25;19.00;;;;;-143.93;100.00;62969.28;4998709;28;8837;-71
2022/04/24 02:22:12;;;;;;;;;22.25;18.75;;;;;-143.93;100.00;62969.28;5005622;28;8841;-71
2022/04/24 02:24:37;;;;;;;;;19.25;18.25;;;;;-143.93;100.00;62969.28;4996098;28;8827;-71
2022/04/24 02:27:03;;;;;;;;;19.75;19.25;;;;;-143.93;100.00;62969.28;5002716;28;8931;-71
2022/04/24 02:29:28;;;;;;;;;18.00;15.75;;;;;-143.93;100.00;62969.28;5003290;28;8825;-71
2022/04/24 02:31:54;;;;;;;;;27.75;20.75;;;;;-143.93;100.00;62969.28;4990097;28;8832;-71
2022/04/24 02:34:19;;;;;;;;;20.50;15.25;;;;;-143.93;100.00;62969.28;5006013;28;8829;-71
2022/04/24 02:36:45;;;;;;;;;21.00;16.00;;;;;-143.93;100.00;62969.28;5003883;28;8817;-71
2022/04/24 02:39:10;;;;;;;;;15.50;15.50;;;;;-143.93;100.00;62969.28;5003113;28;8828;-71
2022/04/24 02:41:35;;;;;;;;;26.00;17.25;;;;;-143.93;100.00;62969.28;5009681;28;8827;-71
2022/04/24 02:44:01;;;;;;;;;21.00;20.00;;;;;-143.93;100.00;62969.28;4999791;28;10694;-71
2022/04/24 02:46:26;;;;;;;;;18.75;15.75;;;;;-143.93;100.00;62969.28;5002604;28;8815;-71
2022/04/24 02:48:51;;;;;;;;;22.00;16.75;;;;;-143.93;100.00;62969.28;4995376;28;11000;-71
2022/04/24 02:51:17;;;;;;;;;23.00;18.00;;;;;-143.93;100.00;62969.28;4996091;28;8889;-72
2022/04/24 02:53:42;;;;;;;;;19.50;16.00;;;;;-143.93;100.00;62969.28;4998700;28;8829;-71
2022/04/24 02:56:08;;;;;;;;;22.25;17.25;;;;;-143.93;100.00;62969.28;5003895;28;8855;-71
2022/04/24 02:58:33;;;;;;;;;20.75;19.00;;;;;-143.93;100.00;62969.28;5006978;28;8813;-71
2022/04/24 03:00:59;;;;;;;;;21.25;17.25;;;;;-143.93;100.00;62969.28;5002097;28;8940;-72
2022/04/24 03:03:25;;;;;;;;;22.50;15.75;;;;;-143.93;100.00;62969.28;5001852;28;8840;-72
2022/04/24 03:05:51;;;;;;;;;17.75;17.50;;;;;-143.93;100.00;62969.28;5002826;28;8848;-71
2022/04/24 03:08:17;;;;;;;;;22.00;16.25;;;;;-143.93;100.00;62969.28;4992888;28;8835;-71
2022/04/24 03:10:44;;;;;;;;;25.75;21.25;;;;;-143.93;100.00;62969.28;5016415;28;8875;-71
2022/04/24 03:13:09;;;;;;;;;22.50;18.75;;;;;-143.93;100.00;62969.28;5004506;28;8859;-72
2022/04/24 03:15:36;;;;;;;;;19.75;17.25;;;;;-143.93;100.00;62969.28;4999201;28;8925;-72
2022/04/24 03:18:02;;;;;;;;;22.00;15.75;;;;;-143.93;100.00;62969.28;4995199;28;9650;-71
2022/04/24 03:20:28;;;;;;;;;19.75;17.00;;;;;-143.93;100.00;62969.28;4992770;28;8825;-71
2022/04/24 03:22:53;;;;;;;;;23.75;17.25;;;;;-143.93;100.00;62969.28;5004450;28;8930;-71
2022/04/24 03:25:18;;;;;;;;;19.50;18.25;;;;;-143.93;100.00;62969.28;4991903;28;8811;-71
2022/04/24 03:27:44;;;;;;;;;17.50;16.50;;;;;-143.93;100.00;62969.28;4998947;28;9226;-72
2022/04/24 03:30:09;;;;;;;;;21.00;15.50;;;;;-143.93;100.00;62969.28;4995434;28;8809;-71
2022/04/24 03:32:35;;;;;;;;;21.00;16.75;;;;;-143.93;100.00;62969.28;5004691;28;8816;-71
2022/04/24 03:35:03;;;;;;;;;20.25;17.50;;;;;-143.93;100.00;62969.28;5004745;28;8813;-71
2022/04/24 03:37:29;;;;;;;;;24.00;19.25;;;;;-143.93;100.00;62969.28;5005281;28;8801;-71
2022/04/24 03:39:54;;;;;;;;;20.00;18.00;;;;;-143.93;100.00;62969.28;4997484;28;8895;-71
2022/04/24 03:42:20;;;;;;;;;27.00;18.00;;;;;-143.93;100.00;62969.28;5008581;28;8863;-71
2022/04/24 03:44:45;;;;;;;;;19.25;16.50;;;;;-143.93;100.00;62969.28;5002373;28;8823;-71
2022/04/24 03:47:10;;;;;;;;;24.50;20.50;;;;;-143.93;100.00;62969.28;5009723;28;8997;-71
2022/04/24 03:49:36;;;;;;;;;18.75;18.00;;;;;-143.93;100.00;62969.28;4989940;28;16934;-71
2022/04/24 03:52:01;;;;;;;;;20.00;17.00;;;;;-143.93;100.00;62969.28;5002944;28;8932;-71
2022/04/24 03:54:26;;;;;;;;;17.50;14.75;;;;;-143.93;100.00;62969.28;5002198;28;8845;-71
2022/04/24 03:56:52;;;;;;;;;21.25;20.00;;;;;-143.93;100.00;62969.28;4992513;28;8826;-71
2022/04/24 03:59:17;;;;;;;;;22.75;18.50;;;;;-143.93;100.00;62969.28;5002406;27;8812;-72
2022/04/24 04:01:42;;;;;;;;;18.75;17.75;;;;;-143.93;100.00;62969.28;4992919;28;8796;-71
2022/04/24 04:04:08;;;;;;;;;18.75;17.50;;;;;-143.93;100.00;62969.28;4999500;28;8838;-71
2022/04/24 04:06:34;;;;;;;;;17.75;16.75;;;;;-143.93;100.00;62969.28;5002167;28;8821;-71
2022/04/24 04:08:59;;;;;;;;;20.75;20.00;;;;;-143.93;100.00;62969.28;5003473;27;8889;-72
2022/04/24 04:11:26;;;;;;;;;21.25;18.00;;;;;-143.93;100.00;62969.28;4999377;28;8836;-71
2022/04/24 04:13:52;;;;;;;;;21.00;15.00;;;;;-143.93;100.00;62969.28;5006455;28;8836;-71
2022/04/24 04:16:17;;;;;;;;;19.50;15.00;;;;;-143.93;100.00;62969.28;4991606;28;8858;-71
2022/04/24 04:18:42;;;;;;;;;21.75;17.00;;;;;-143.93;100.00;62969.28;4999148;28;9390;-71
2022/04/24 04:21:08;;;;;;;;;20.75;18.00;;;;;-143.93;100.00;62969.28;4996802;28;8845;-71
2022/04/24 04:23:33;;;;;;;;;20.50;18.25;;;;;-143.93;100.00;62969.28;5011636;28;8884;-71
2022/04/24 04:25:58;;;;;;;;;19.75;17.75;;;;;-143.93;100.00;62969.28;5005429;28;8806;-71
2022/04/24 04:28:24;;;;;;;;;21.00;18.50;;;;;-143.93;100.00;62969.28;5004153;28;8883;-71
2022/04/24 04:30:49;;;;;;;;;17.75;14.50;;;;;-143.93;100.00;62969.28;5001772;28;8810;-71
2022/04/24 04:33:14;;;;;;;;;20.50;19.00;;;;;-143.93;100.00;62969.28;4996058;28;8845;-71
2022/04/24 04:35:40;;;;;;;;;23.00;19.25;;;;;-143.93;100.00;62969.28;5004494;28;13093;-71
2022/04/24 04:38:05;;;;;;;;;21.25;21.25;;;;;-143.93;100.00;62969.28;5004879;28;8825;-71
2022/04/24 04:40:31;;;;;;;;;25.00;19.25;;;;;-143.93;100.00;62969.28;4990479;28;8918;-71
2022/04/24 04:42:57;;;;;;;;;24.00;19.75;;;;;-143.93;100.00;62969.28;5009174;28;8821;-71
2022/04/24 04:45:24;;;;;;;;;23.75;17.75;;;;;-143.93;100.00;62969.28;5003738;28;8907;-71
2022/04/24 04:47:50;;;;;;;;;19.50;18.25;;;;;-143.93;100.00;62969.28;5002302;27;8800;-71
2022/04/24 04:50:16;;;;;;;;;19.00;17.25;;;;;-143.93;100.00;62969.28;5005355;27;8835;-71
2022/04/24 04:52:42;;;;;;;;;21.25;18.50;;;;;-143.93;100.00;62969.28;5004022;28;8832;-73
2022/04/24 04:55:07;;;;;;;;;26.75;18.25;;;;;-143.93;100.00;62969.28;5001074;28;8924;-71
2022/04/24 04:57:32;;;;;;;;;21.25;18.50;;;;;-143.93;100.00;62969.28;4995097;28;8846;-72
2022/04/24 04:59:58;;;;;;;;;24.75;19.75;;;;;-143.93;100.00;62969.28;4996884;28;8841;-71
2022/04/24 05:02:23;;;;;;;;;20.00;17.50;;;;;-143.93;100.00;62969.28;4999379;28;8841;-72
2022/04/24 05:04:48;;;;;;;;;17.50;17.00;;;;;-143.93;100.00;62969.28;4999545;28;8817;-72
2022/04/24 05:07:14;;;;;;;;;22.00;17.75;;;;;-143.93;100.00;62969.28;4995239;28;8905;-72
2022/04/24 05:09:40;;;;;;;;;22.50;18.25;;;;;-143.93;100.00;62969.28;4997191;28;8821;-72
2022/04/24 05:12:07;;;;;;;;;24.00;21.50;;;;;-143.93;100.00;62969.28;5018533;28;8837;-72
2022/04/24 05:14:33;;;;;;;;;24.50;19.50;;;;;-143.93;100.00;62969.28;4995796;28;8816;-72
2022/04/24 05:16:59;;;;;;;;;21.25;19.50;;;;;-143.93;100.00;62969.28;5005224;28;8876;-71
2022/04/24 05:19:25;;;;;;;;;19.75;16.75;;;;;-143.93;100.00;62969.28;5003814;28;8802;-72
2022/04/24 05:21:51;;;;;;;;;19.75;18.75;;;;;-143.93;100.00;62969.28;4995866;28;8808;-72
2022/04/24 05:24:16;;;;;;;;;25.25;19.00;;;;;-143.93;100.00;62969.28;5002226;28;8833;-72
2022/04/24 05:26:41;;;;;;;;;22.25;21.75;;;;;-143.93;100.00;62969.28;5007638;28;17989;-72
2022/04/24 05:29:07;;;;;;;;;30.67;19.00;;;;;-143.93;100.00;62969.28;4997378;28;19536;-72
2022/04/24 05:31:32;;;;;;;;;21.25;17.00;;;;;-143.93;100.00;62969.28;4992759;28;8890;-72
2022/04/24 05:33:58;;;;;;;;;23.25;19.00;;;;;-143.93;100.00;62969.28;4993980;28;8832;-72
2022/04/24 05:36:23;;;;;;;;;22.25;20.50;;;;;-143.93;100.00;62969.28;5000575;28;8877;-72
2022/04/24 05:38:48;;;;;;;;;21.25;19.25;;;;;-143.93;100.00;62969.28;4990570;28;9590;-72
2022/04/24 05:41:14;;;;;;;;;25.00;22.25;;;;;-143.93;100.00;62969.28;5004397;28;8817;-72
2022/04/24 05:43:39;;;;;;;;;23.75;19.75;;;;;-143.93;100.00;62969.28;5000742;28;8821;-72
2022/04/24 05:46:04;;;;;;;;;24.50;22.50;;;;;-143.93;100.00;62969.28;4995800;28;9857;-73
2022/04/24 05:48:29;;;;;;;;;23.25;20.25;;;;;-143.93;100.00;62969.28;4995913;28;24165;-71
2022/04/24 05:50:55;;;;;;;;;20.50;19.00;;;;;-143.93;100.00;62969.28;4995949;28;8824;-71
2022/04/24 05:53:20;;;;;;;;;27.00;19.00;;;;;-143.93;100.00;62969.28;5004247;28;8833;-72
2022/04/24 05:55:46;;;;;;;;;22.25;19.50;;;;;-143.93;100.00;62969.28;5003681;28;8813;-72
2022/04/24 05:58:11;;;;;;;;;23.75;18.75;;;;;-143.93;100.00;62969.28;4993558;28;8808;-72
2022/04/24 06:00:36;;;;;;;;;21.25;19.50;;;;;-143.93;100.00;62969.28;4997223;28;8844;-72
2022/04/24 06:03:02;;;;;;;;;25.00;22.00;;;;;-143.93;100.00;62969.28;4999861;28;8833;-72
2022/04/24 06:05:28;;;;;;;;;20.75;18.00;;;;;-143.93;100.00;62969.28;4991021;28;8901;-72
2022/04/24 06:07:54;;;;;;;;;19.00;17.00;;;;;-143.93;100.00;62969.28;5004434;28;8809;-73
2022/04/24 06:10:20;;;;;;;;;25.75;24.00;;;;;-143.93;100.00;62969.28;5002895;28;8826;-73
2022/04/24 06:12:55;;;;;;;;;25.00;21.25;;;;;-143.93;100.00;62969.28;4997670;28;8837;-72
2022/04/24 06:15:26;;;;;;;;;21.75;20.50;;;;;-143.93;100.00;62969.28;5002135;28;8805;-70
2022/04/24 06:17:53;;;;;;;;;27.25;21.00;;;;;-143.93;100.00;62969.28;5003206;28;8905;-70
2022/04/24 06:20:21;;;;;;;;;28.75;22.25;;;;;-143.93;100.00;62969.28;5007405;28;9575;-70
2022/04/24 06:22:49;;;;;;;;;22.75;20.50;;;;;-143.93;100.00;62969.28;4993566;28;8847;-71
2022/04/24 06:25:22;;;;;;;;;29.25;27.00;;;;;-143.93;100.00;62969.28;5005014;28;8801;-71
2022/04/24 06:27:48;;;;;;;;;31.75;25.00;;;;;-143.93;100.00;62969.28;5014120;28;8906;-71
2022/04/24 06:30:15;;;;;;;;;29.50;25.50;;;;;-143.93;100.00;62969.28;5018784;28;8809;-72
2022/04/24 06:32:42;;;;;;;;;29.00;22.50;;;;;-143.93;100.00;62969.28;5005172;28;8828;-72
2022/04/24 06:35:09;;;;;;;;;31.00;25.75;;;;;-143.93;100.00;62969.28;5007258;28;8871;-72
2022/04/24 06:37:39;;;;;;;;;25.00;23.75;;;;;-143.93;100.00;62969.28;5007674;28;8890;-72
2022/04/24 06:40:10;;;;;;;;;27.50;22.25;;;;;-143.93;100.00;62969.28;5030873;27;8826;-71
2022/04/24 06:42:46;;;;;;;;;25.75;22.50;;;;;-143.93;100.00;62969.28;5001821;28;8963;-72
2022/04/24 06:45:11;;;;;;;;;28.25;24.75;;;;;-143.93;100.00;62969.28;5009502;28;8870;-72
2022/04/24 06:47:37;;;;;;;;;29.50;26.00;;;;;-143.93;100.00;62969.28;5006405;28;8821;-70
2022/04/24 06:50:02;;;;;;;;;29.50;26.25;;;;;-143.93;100.00;62969.28;5038632;28;8853;-72
2022/04/24 06:52:28;;;;;;;;;31.25;27.75;;;;;-143.93;100.00;62969.28;5003332;28;8813;-73
2022/04/24 06:54:54;;;;;;;;;27.50;26.50;;;;;-143.93;100.00;62969.28;5017542;28;8863;-73
2022/04/24 06:57:19;;;;;;;;;29.25;24.25;;;;;-143.93;100.00;62969.28;4995263;28;9886;-72
2022/04/24 06:59:45;;;;;;;;;33.25;27.25;;;;;-143.93;100.00;62969.28;4997799;28;8824;-72
2022/04/24 07:02:10;;;;;;;;;31.75;28.25;;;;;-143.93;100.00;62969.28;5008127;28;8843;-72
2022/04/24 07:04:36;;;;;;;;;37.00;31.00;;;;;-143.93;100.00;62969.28;5005187;28;8821;-72
2022/04/24 07:07:01;;;;;;;;;31.75;27.00;;;;;-143.93;100.00;62969.28;5005685;28;8825;-72
2022/04/24 07:09:27;;;;;;;;;32.25;27.75;;;;;-143.93;100.00;62969.28;4996853;28;8815;-72
2022/04/24 07:11:52;;;;;;;;;33.50;28.50;;;;;-143.93;100.00;62969.28;5000390;28;8831;-72
2022/04/24 07:14:18;;;;;;;;;32.25;27.25;;;;;-143.93;100.00;62969.28;4999310;28;8869;-72
2022/04/24 07:16:43;;;;;;;;;32.25;29.00;;;;;-143.93;100.00;62969.28;4996504;28;9545;-71
2022/04/24 07:19:08;;;;;;;;;31.33;28.67;;;;;-143.93;100.00;62969.28;4998964;28;18881;-71
2022/04/24 07:21:33;;;;;;;;;33.25;31.25;;;;;-143.93;100.00;62969.28;4996542;28;8935;-72
2022/04/24 07:23:59;;;;;;;;;32.50;30.25;;;;;-143.93;100.00;62969.28;4992391;28;8851;-71
2022/04/24 07:26:24;;;;;;;;;35.50;28.00;;;;;-143.93;100.00;62969.28;4998256;28;8942;-71
2022/04/24 07:28:49;;;;;;;;;35.75;31.25;;;;;-143.93;100.00;62969.28;4999547;28;8824;-71
2022/04/24 07:31:18;;;;;;;;;38.00;31.25;;;;;-143.93;100.00;62969.28;5007271;28;9010;-71
2022/04/24 07:33:43;;;;;;;;;36.00;30.75;;;;;-143.93;100.00;62969.28;4997125;28;8800;-71
2022/04/24 07:36:08;;;;;;;;;37.50;31.25;;;;;-143.93;100.00;62969.28;5001938;28;8977;-71
2022/04/24 07:38:34;;;;;;;;;31.00;28.50;;;;;-143.93;100.00;62969.28;4992975;28;10891;-71
2022/04/24 07:41:00;;;;;;;;;35.50;32.25;;;;;-143.93;100.00;62969.28;4990074;28;8815;-71
2022/04/24 07:43:25;;;;;;;;;37.00;31.00;;;;;-143.93;100.00;62969.28;4994333;28;8916;-71
2022/04/24 07:45:51;;;;;;;;;38.25;32.25;;;;;-143.93;100.00;62969.28;4997034;28;10463;-71
2022/04/24 07:48:17;;;;;;;;;39.75;33.50;;;;;-143.93;100.00;62969.28;4994424;28;21970;-71
2022/04/24 07:50:49;;;;;;;;;38.25;32.75;;;;;-143.93;100.00;62969.28;4999074;28;8801;-71
2022/04/24 07:53:16;;;;;;;;;46.50;33.00;;;;;-143.93;100.00;62969.28;4991914;28;8850;-72
2022/04/24 07:55:47;;;;;;;;;39.25;33.00;;;;;-143.93;100.00;62969.28;4990757;28;8844;-71
2022/04/24 07:58:13;;;;;;;;;42.75;34.25;;;;;-143.93;100.00;62969.28;4991874;28;8796;-71
2022/04/24 08:00:40;;;;;;;;;39.50;33.00;;;;;-143.93;100.00;62969.28;5000806;28;8823;-71
2022/04/24 08:03:07;;;;;;;;;45.50;34.00;;;;;-143.93;100.00;62969.28;4998065;28;8920;-71
2022/04/24 08:05:41;;;;;;;;;42.25;33.00;;;;;-143.93;100.00;62969.28;5001389;28;8818;-71
2022/04/24 08:08:20;;;;;;;;;42.25;34.75;;;;;-143.93;100.00;62969.28;5006382;28;8821;-71
2022/04/24 08:10:49;;;;;;;;;62.25;46.00;;;;;-143.93;100.00;62969.28;5004617;28;8795;-71
2022/04/24 08:13:15;;;;;;;;;46.00;37.25;;;;;-143.93;100.00;62969.28;4998727;28;8816;-71
2022/04/24 08:15:41;;;;;;;;;44.75;34.50;;;;;-143.93;100.00;62969.28;5006831;28;8810;-71
2022/04/24 08:18:07;;;;;;;;;38.25;31.00;;;;;-143.93;100.00;62969.28;5010457;28;8820;-71
2022/04/24 08:20:34;;;;;;;;;41.50;32.25;;;;;-143.93;100.00;62969.28;4993463;28;8844;-71
2022/04/24 08:23:01;;;;;;;;;36.75;30.25;;;;;-143.93;100.00;62969.28;4990968;28;8824;-71
2022/04/24 08:25:28;;;;;;;;;42.50;34.25;;;;;-143.93;100.00;62969.28;5005728;28;8809;-70
2022/04/24 08:27:55;;;;;;;;;36.25;32.00;;;;;-143.93;100.00;62969.28;4996773;28;8879;-71
2022/04/24 08:30:26;;;;;;;;;43.25;33.25;;;;;-143.93;100.00;62969.28;5002899;28;8918;-70
2022/04/24 08:32:51;;;;;;;;;37.75;32.00;;;;;-143.93;100.00;62969.28;4996036;28;8819;-71
2022/04/24 08:35:19;;;;;;;;;34.50;31.25;;;;;-143.93;100.00;62969.28;5002059;28;8823;-69
2022/04/24 08:37:45;;;;;;;;;37.00;32.75;;;;;-143.93;100.00;62969.28;4993999;28;8802;-69
2022/04/24 08:40:12;;;;;;;;;40.00;30.00;;;;;-143.93;100.00;62969.28;4997827;28;9575;-69
2022/04/24 08:42:40;;;;;;;;;34.50;32.25;;;;;-143.93;100.00;62969.28;5002866;28;8884;-68
2022/04/24 08:45:07;;;;;;;;;42.25;32.25;;;;;-143.93;100.00;62969.28;5002359;28;8808;-68
2022/04/24 08:47:32;;;;;;;;;35.50;31.00;;;;;-143.93;100.00;62969.28;5004075;27;8812;-69
2022/04/24 08:49:59;;;;;;;;;42.00;35.00;;;;;-143.93;100.00;62969.28;5003879;28;8823;-70
2022/04/24 08:52:27;;;;;;;;;36.25;31.75;;;;;-143.93;100.00;62969.28;4993509;28;8854;-71
2022/04/24 08:54:53;;;;;;;;;34.25;31.00;;;;;-143.93;100.00;62969.28;4994231;28;8889;-70
2022/04/24 08:57:19;;;;;;;;;35.25;29.25;;;;;-143.93;100.00;62969.28;4994305;28;8923;-70
2022/04/24 08:59:46;;;;;;;;;34.00;30.00;;;;;-143.93;100.00;62969.28;4997302;28;8805;-70
2022/04/24 09:02:12;;;;;;;;;31.75;28.00;;;;;-143.93;100.00;62969.28;4989940;28;8809;-70
2022/04/24 09:04:39;;;;;;;;;36.75;30.75;;;;;-143.93;100.00;62969.28;5002678;28;8832;-71
2022/04/24 09:07:07;;;;;;;;;36.00;30.75;;;;;-143.93;100.00;62969.28;4994388;28;8807;-70
2022/04/24 09:09:42;;;;;;;;;36.25;31.75;;;;;-143.93;100.00;62969.28;4993925;28;8808;-71
2022/04/24 09:12:15;;;;;;;;;29.75;28.00;;;;;-143.93;100.00;62969.28;4993988;28;8842;-71
2022/04/24 09:14:41;;;;;;;;;31.25;28.25;;;;;-143.93;100.00;62969.28;4993767;28;8817;-71
2022/04/24 09:17:27;;;;;;;;;36.25;30.00;;;;;-143.93;100.00;62969.28;5004270;28;8808;-71
2022/04/24 09:19:55;;;;;;;;;34.00;30.00;;;;;-143.93;100.00;62969.28;5005281;28;8820;-68
2022/04/24 09:22:24;;;;;;;;;31.50;28.00;;;;;-143.93;100.00;62969.28;5025721;28;8819;-69
2022/04/24 09:25:00;;;;;;;;;28.00;26.50;;;;;-143.93;100.00;62969.28;5003983;28;8849;-69
2022/04/24 09:27:28;;;;;;;;;29.00;27.25;;;;;-143.93;100.00;62969.28;5004682;28;8910;-71
2022/04/24 09:30:00;;;;;;;;;29.00;27.75;;;;;-143.93;100.00;62969.28;4994948;28;8819;-70
2022/04/24 09:32:36;;;;;;;;;29.25;28.00;;;;;-143.93;100.00;62969.28;5040753;28;8797;-72
2022/04/24 09:35:02;;;;;;;;;29.50;27.50;;;;;-143.93;100.00;62969.28;5008703;28;8809;-72
2022/04/24 09:37:38;;;;;;;;;34.25;29.00;;;;;-143.93;100.00;62969.28;5059267;28;8806;-74
2022/04/24 09:40:04;;;;;;;;;36.25;30.50;;;;;-143.93;100.00;62969.28;5005208;27;8921;-72
2022/04/24 09:42:29;;;;;;;;;34.25;27.75;;;;;-143.93;100.00;62969.28;5003911;28;9704;-72
2022/04/24 09:44:54;;;;;;;;;29.25;27.50;;;;;-143.93;100.00;62969.28;5004615;28;21818;-72
2022/04/24 09:47:24;;;;;;;;;30.25;29.75;;;;;-143.93;100.00;62969.28;5039607;27;19392;-71
2022/04/24 09:49:51;;;;;;;;;34.75;28.00;;;;;-143.93;100.00;62969.28;5003410;28;9541;-70
2022/04/24 09:52:17;;;;;;;;;31.00;30.00;;;;;-143.93;100.00;62969.28;4993665;28;8816;-71
2022/04/24 09:54:51;;;;;;;;;32.50;27.50;;;;;-143.93;100.00;62969.28;4997611;28;8821;-72
2022/04/24 09:57:17;;;;;;;;;33.75;29.75;;;;;-143.93;100.00;62969.28;5004326;28;8898;-70
2022/04/24 09:59:47;;;;;;;;;33.50;31.00;;;;;-143.93;100.00;62969.28;5004807;28;9559;-72
2022/04/24 10:02:15;;;;;;;;;35.50;30.50;;;;;-143.93;100.00;62969.28;5002173;28;8951;-71
2022/04/24 10:04:42;;;;;;;;;32.00;29.25;;;;;-143.93;100.00;62969.28;5004026;28;8780;-73
2022/04/24 10:07:08;;;;;;;;;73.75;61.50;;;;;-143.93;100.00;62969.28;4997320;28;8813;-73
2022/04/24 10:09:38;;;;;;;;;47.00;35.25;;;;;-143.93;100.00;62969.28;4994267;28;8831;-73
2022/04/24 10:12:10;;;;;;;;;35.75;31.00;;;;;-143.93;100.00;62969.28;5006374;28;9595;-71
2022/04/24 10:14:51;;;;;;;;;31.75;29.75;;;;;-143.93;100.00;62969.28;5012439;28;8820;-72
2022/04/24 10:17:43;;;;;;;;;28.75;26.75;;;;;-143.93;100.00;62969.28;5041838;28;8827;-72
2022/04/24 10:20:33;;;;;;;;;39.75;35.25;;;;;-143.93;100.00;62969.28;5003327;28;8828;-71
2022/04/24 10:22:59;;;;;;;;;33.25;28.75;;;;;-143.93;100.00;62969.28;4991954;28;8840;-72
2022/04/24 10:25:39;;;;;;;;;50.25;40.75;;;;;-143.93;100.00;62969.28;5002483;28;8834;-72
2022/04/24 10:28:19;;;;;;;;;35.00;30.75;;;;;-143.93;100.00;62969.28;4996123;28;9862;-72
2022/04/24 10:31:00;;;;;;;;;33.50;30.00;;;;;-143.93;100.00;62969.28;5005375;28;8818;-71
2022/04/24 10:33:29;;;;;;;;;35.00;31.00;;;;;-143.93;100.00;62969.28;5006829;28;8929;-71
2022/04/24 10:36:06;;;;;;;;;40.75;32.00;;;;;-143.93;100.00;62969.28;4994601;28;8805;-71
2022/04/24 10:38:44;;;;;;;;;47.00;37.00;;;;;-143.93;100.00;62969.28;4991011;28;9563;-72
2022/04/24 10:41:25;;;;;;;;;41.75;33.75;;;;;-143.93;100.00;62969.28;4994734;28;8814;-70
2022/04/24 10:43:57;;;;;;;;;93.75;78.25;;;;;-143.93;100.00;62969.28;5004491;28;8934;-71
2022/04/24 10:46:29;;;;;;;;;171.25;162.25;;;;;-143.93;100.00;62969.28;4993441;28;8827;-71
2022/04/24 10:49:06;;;;;;;;;35.00;28.00;;;;;-143.93;100.00;62969.28;5006848;28;8829;-70
2022/04/24 10:51:32;;;;;;;;;34.00;31.00;;;;;-143.93;100.00;62969.28;5006911;27;8866;-70
2022/04/24 10:54:06;;;;;;;;;32.75;28.50;;;;;-143.93;100.00;62969.28;4999313;28;8831;-71
2022/04/24 10:56:32;;;;;;;;;32.50;29.50;;;;;-143.93;100.00;62969.28;5001318;28;8797;-71
2022/04/24 10:59:12;;;;;;;;;32.25;30.25;;;;;-143.93;100.00;62969.28;4989950;28;8804;-71
2022/04/24 11:01:42;;;;;;;;;34.75;29.75;;;;;-143.93;100.00;62969.28;5014888;28;8810;-71